Time;durP1;ratioP1;P1;durP2;ratioP2;P2;SDS_P1;SDS_P2;PMS_P1;PMS_P2;Temp;Humidity;BMP_temperature;BMP_pressure;BME280_temperature;BME280_humidity;BME280_pressure;Samples;Min_cycle;Max_cycle;Signal;HPM_P1;HPM_P2
2021/12/13 00:00:10;;;;;;;14.53;5.28;;;;;;;15.13;63.31;101609.91;1322018;107;21249;-65
2021/12/13 00:02:53;;;;;;;14.03;4.78;;;;;;;15.16;63.28;101607.22;1329974;107;21262;-65
2021/12/13 00:05:31;;;;;;;14.15;5.78;;;;;;;15.19;63.21;101596.64;1332301;105;21196;-66
2021/12/13 00:08:03;;;;;;;14.58;5.12;;;;;;;15.23;63.30;101595.65;1302093;107;21496;-67
2021/12/13 00:10:51;;;;;;;13.25;5.47;;;;;;;15.26;63.18;101603.00;1286615;109;21198;-67
2021/12/13 00:13:48;;;;;;;13.50;5.15;;;;;;;15.31;63.00;101604.20;1328188;106;21204;-64
2021/12/13 00:16:15;;;;;;;18.50;5.20;;;;;;;15.32;63.04;101603.28;1288474;110;22679;-65
2021/12/13 00:18:46;;;;;;;17.62;4.85;;;;;;;15.34;63.03;101602.78;1409887;101;21156;-71
2021/12/13 00:21:20;;;;;;;17.42;6.08;;;;;;;15.37;63.11;101601.40;1417425;100;21674;-66
2021/12/13 00:23:54;;;;;;;18.07;6.83;;;;;;;15.40;62.98;101601.30;1395672;101;21212;-65
2021/12/13 00:26:24;;;;;;;15.53;5.60;;;;;;;15.41;62.83;101598.63;1396926;102;21154;-71
2021/12/13 00:28:51;;;;;;;15.48;4.75;;;;;;;15.45;62.70;101594.20;1370221;104;21149;-66
2021/12/13 00:31:47;;;;;;;10.78;4.00;;;;;;;15.43;62.68;101590.77;1363436;104;21187;-66
2021/12/13 00:34:40;;;;;;;16.45;6.05;;;;;;;15.39;62.85;101595.66;1365700;104;21254;-65
2021/12/13 00:37:14;;;;;;;15.10;5.45;;;;;;;15.38;63.00;101598.73;1366137;104;21331;-64
2021/12/13 00:40:01;;;;;;;14.93;5.53;;;;;;;15.36;63.05;101599.66;1377760;104;21148;-66
2021/12/13 00:42:34;;;;;;;13.53;5.17;;;;;;;15.37;63.18;101594.84;1386120;101;21143;-64
2021/12/13 00:45:06;;;;;;;15.98;5.90;;;;;;;15.38;63.22;101589.98;1392032;101;21683;-66
2021/12/13 00:47:33;;;;;;;;;;;;;;;15.39;63.26;101589.10;1388806;101;21116;-66
2021/12/13 00:50:14;;;;;;;12.65;4.35;;;;;;;15.42;63.39;101587.69;1387008;101;20227;-66
2021/12/13 00:52:45;;;;;;;19.87;4.97;;;;;;;15.44;63.46;101581.98;1370508;103;21201;-66
2021/12/13 00:55:20;;;;;;;13.85;4.75;;;;;;;15.47;63.33;101589.78;1373474;103;21728;-65
2021/12/13 00:57:51;;;;;;;15.83;5.15;;;;;;;15.48;63.44;101587.10;1378153;104;21175;-65
2021/12/13 01:00:29;;;;;;;15.53;5.17;;;;;;;15.53;63.39;101590.05;1369512;103;21665;-66
2021/12/13 01:09:54;;;;;;;14.70;4.80;;;;;;;15.64;63.09;101583.56;1412138;100;21301;-65
2021/12/13 01:12:23;;;;;;;20.25;6.70;;;;;;;15.66;63.02;101577.82;1412904;101;21644;-66
2021/12/13 01:15:00;;;;;;;17.52;5.22;;;;;;;15.68;62.87;101580.42;1413344;101;21239;-67
2021/12/13 01:20:17;;;;;;;12.20;5.22;;;;;;;15.73;62.98;101586.37;1362221;102;21612;-67
2021/12/13 01:22:56;;;;;;;13.22;5.37;;;;;;;15.78;62.98;101573.55;1394659;101;21153;-69
2021/12/13 01:26:01;;;;;;;17.50;6.62;;;;;;;15.83;62.93;101567.69;1404596;101;21114;-66
2021/12/13 01:28:29;;;;;;;15.50;6.70;;;;;;;15.86;62.79;101563.67;1420853;100;21156;-65
2021/12/13 01:31:03;;;;;;;23.98;7.22;;;;;;;15.89;62.62;101567.50;1399836;102;21207;-70
2021/12/13 01:33:31;;;;;;;21.23;6.60;;;;;;;15.91;62.50;101569.63;1398857;102;21234;-66
2021/12/13 01:36:02;;;;;;;22.25;7.65;;;;;;;15.89;62.45;101570.13;1394217;102;21140;-70
2021/12/13 01:38:35;;;;;;;20.97;7.42;;;;;;;15.90;62.54;101577.11;1396461;102;21503;-67
2021/12/13 01:41:12;;;;;;;18.05;6.00;;;;;;;15.91;62.56;101575.35;1416553;100;21710;-69
2021/12/13 01:43:43;;;;;;;16.48;6.35;;;;;;;15.94;62.43;101570.86;1403695;101;21145;-70
2021/12/13 01:46:10;;;;;;;14.45;5.67;;;;;;;15.95;62.48;101561.23;1404265;100;21170;-66
2021/12/13 01:48:40;;;;;;;16.57;6.22;;;;;;;15.97;62.47;101554.16;1390304;102;21192;-65
2021/12/13 01:51:12;;;;;;;11.88;5.20;;;;;;;15.99;62.44;101561.05;1405482;101;21165;-65
2021/12/13 01:53:53;;;;;;;14.25;5.58;;;;;;;16.03;62.42;101562.67;1398314;100;21865;-67
2021/12/13 01:56:47;;;;;;;22.02;7.10;;;;;;;16.07;62.33;101570.03;1403511;100;21143;-69
2021/12/13 02:02:17;;;;;;;14.33;6.00;;;;;;;16.07;62.16;101572.17;1393812;101;21154;-66
2021/12/13 02:04:45;;;;;;;15.70;5.55;;;;;;;16.07;62.18;101556.42;1381345;102;21663;-66
2021/12/13 02:07:12;;;;;;;21.33;6.92;;;;;;;16.08;62.19;101546.34;1413755;101;21135;-65
2021/12/13 02:09:43;;;;;;;18.57;5.62;;;;;;;16.10;62.15;101541.91;1398623;99;21285;-67
2021/12/13 02:12:15;;;;;;;17.27;6.80;;;;;;;16.12;62.08;101547.96;1403927;101;21092;-66
2021/12/13 02:16:55;;;;;;;17.17;6.23;;;;;;;16.14;62.07;101546.14;1378913;103;21220;-66
2021/12/13 02:17:21;;;;;;;23.70;7.17;;;;;;;16.18;61.98;101546.45;1364096;103;21209;-65
2021/12/13 02:20:00;;;;;;;21.85;8.75;;;;;;;16.21;61.89;101548.13;1377172;103;21178;-67
2021/12/13 02:22:33;;;;;;;26.62;9.70;;;;;;;16.22;61.79;101552.00;1348138;105;21661;-67
2021/12/13 02:25:21;;;;;;;30.57;10.35;;;;;;;16.21;61.67;101559.50;1352032;103;21271;-67
2021/12/13 02:27:53;;;;;;;33.08;9.88;;;;;;;16.22;61.54;101564.27;1321436;106;21155;-66
2021/12/13 02:30:28;;;;;;;38.75;11.10;;;;;;;16.19;61.50;101567.88;1289148;110;21712;-67
2021/12/13 02:32:56;;;;;;;31.57;9.38;;;;;;;16.18;61.54;101568.77;1306476;109;21214;-66
2021/12/13 02:35:24;;;;;;;22.82;9.55;;;;;;;16.16;61.58;101564.02;1324159;107;21448;-67
2021/12/13 02:37:52;;;;;;;24.50;7.97;;;;;;;16.17;61.65;101559.64;1289295;108;21357;-66
2021/12/13 02:40:19;;;;;;;22.60;7.12;;;;;;;16.17;61.67;101565.76;1242471;114;21278;-66
2021/12/13 02:42:46;;;;;;;21.20;7.28;;;;;;;16.19;61.66;101571.81;1296234;108;21779;-70
2021/12/13 02:45:27;;;;;;;19.42;7.08;;;;;;;16.19;61.62;101569.19;1311070;109;21693;-65
2021/12/13 02:48:06;;;;;;;18.23;5.72;;;;;;;16.21;61.59;101572.63;1311641;108;21264;-67
2021/12/13 02:50:43;;;;;;;23.35;6.67;;;;;;;16.23;61.59;101573.44;1288932;110;21205;-68
2021/12/13 02:53:12;;;;;;;21.62;5.67;;;;;;;16.26;61.57;101582.52;1283934;110;21179;-66
2021/12/13 02:55:40;;;;;;;16.25;5.08;;;;;;;16.28;61.57;101587.27;1292165;109;21201;-64
2021/12/13 02:58:10;;;;;;;15.00;5.53;;;;;;;16.30;61.45;101589.37;1311426;107;21191;-73
2021/12/13 03:00:51;;;;;;;16.00;4.72;;;;;;;16.32;61.43;101596.37;1305545;109;21224;-66
2021/12/13 03:03:22;;;;;;;16.25;5.95;;;;;;;16.32;61.32;101596.37;1258997;112;21252;-67
2021/12/13 03:05:51;;;;;;;13.15;5.12;;;;;;;16.29;61.23;101585.05;1277782;111;21322;-66
2021/12/13 03:08:35;;;;;;;14.10;4.72;;;;;;;16.28;61.27;101579.37;1280913;110;21179;-67
2021/12/13 03:11:07;;;;;;;14.35;4.80;;;;;;;16.28;61.30;101581.14;1295238;109;21204;-73
2021/12/13 03:13:36;;;;;;;13.25;4.97;;;;;;;16.28;61.33;101584.63;1311058;107;21664;-67
2021/12/13 03:16:13;;;;;;;18.35;6.03;;;;;;;16.28;61.31;101579.37;1311669;107;21646;-67
2021/12/13 03:19:03;;;;;;;15.30;5.10;;;;;;;16.28;61.24;101568.87;1303448;107;21742;-67
2021/12/13 03:22:04;;;;;;;15.03;5.80;;;;;;;16.30;61.24;101567.06;1309216;109;21292;-65
2021/12/13 03:24:39;;;;;;;16.00;5.65;;;;;;;16.31;61.21;101579.75;1330620;106;21180;-66
2021/12/13 03:27:29;;;;;;;16.95;6.00;;;;;;;16.30;61.22;101580.19;1308051;107;21657;-67
2021/12/13 03:30:13;;;;;;;11.43;5.40;;;;;;;16.32;61.18;101587.17;1312453;109;21159;-67
2021/12/13 03:33:03;;;;;;;12.85;5.85;;;;;;;16.33;61.22;101570.49;1312626;109;21161;-66
2021/12/13 03:35:57;;;;;;;11.08;5.33;;;;;;;16.34;61.14;101576.16;1312776;109;21121;-67
2021/12/13 03:38:34;;;;;;;9.73;4.85;;;;;;;16.35;61.09;101579.18;1313552;109;21756;-67
2021/12/13 03:41:04;;;;;;;14.30;5.62;;;;;;;16.34;61.03;101584.05;1298360;109;21263;-67
2021/12/13 03:43:40;;;;;;;13.93;5.92;;;;;;;16.34;60.96;101580.11;1287980;110;21696;-67
2021/12/13 03:46:08;;;;;;;18.85;7.22;;;;;;;16.34;60.95;101574.86;1282650;111;21185;-69
2021/12/13 03:48:36;;;;;;;20.77;7.72;;;;;;;16.32;60.94;101576.67;1307916;109;21200;-71
2021/12/13 03:51:07;;;;;;;24.23;8.90;;;;;;;16.28;60.96;101581.14;1293522;111;21170;-66
2021/12/13 03:53:35;;;;;;;26.60;10.00;;;;;;;16.26;60.91;101578.57;1323012;106;21253;-67
2021/12/13 03:56:09;;;;;;;31.65;11.10;;;;;;;16.23;60.89;101575.20;1322582;107;21176;-67
2021/12/13 03:58:39;;;;;;;37.63;11.90;;;;;;;16.21;60.98;101575.25;1313716;109;21758;-67
2021/12/13 04:01:11;;;;;;;27.22;10.63;;;;;;;16.20;61.03;101577.91;1321623;107;21168;-67
2021/12/13 04:03:38;;;;;;;16.48;6.72;;;;;;;16.20;61.06;101578.77;1305842;109;21184;-67
2021/12/13 04:06:05;;;;;;;17.48;7.22;;;;;;;16.20;61.00;101584.02;1301105;109;21223;-66
2021/12/13 04:08:33;;;;;;;13.95;6.33;;;;;;;16.21;61.04;101590.14;1311321;106;21783;-67
2021/12/13 04:11:04;;;;;;;16.93;6.92;;;;;;;16.20;60.95;101587.96;1355503;105;21240;-67
2021/12/13 04:13:49;;;;;;;12.98;5.50;;;;;;;16.21;60.87;101589.70;1352218;105;21245;-66
2021/12/13 04:16:46;;;;;;;12.47;5.33;;;;;;;16.21;60.84;101596.26;1383943;102;21693;-67
2021/12/13 04:19:11;;;;;;;13.05;5.87;;;;;;;16.19;60.82;101594.14;1326438;106;21260;-66
2021/12/13 04:22:00;;;;;;;10.65;4.87;;;;;;;16.19;60.81;101596.77;1336320;106;21742;-67
2021/12/13 04:24:38;;;;;;;9.33;4.42;;;;;;;16.19;60.93;101591.95;1351153;103;21688;-66
2021/12/13 04:27:17;;;;;;;12.53;5.15;;;;;;;16.19;60.90;101588.88;1367570;105;21121;-67
2021/12/13 04:29:44;;;;;;;9.23;4.72;;;;;;;16.20;60.85;101583.16;1371405;104;21652;-67
2021/12/13 04:32:25;;;;;;;10.40;5.78;;;;;;;16.19;60.85;101584.95;1356340;105;21155;-66
2021/12/13 04:34:55;;;;;;;10.18;5.22;;;;;;;16.20;60.82;101593.21;1367873;105;21170;-66
2021/12/13 04:37:26;;;;;;;11.22;5.03;;;;;;;16.19;60.85;101587.57;1355886;105;21920;-72
2021/12/13 04:39:58;;;;;;;14.68;6.10;;;;;;;16.21;60.84;101592.32;1370223;104;21158;-66
2021/12/13 04:42:27;;;;;;;14.70;6.70;;;;;;;16.22;60.81;101593.16;1354086;106;21220;-67
2021/12/13 04:45:16;;;;;;;11.88;5.58;;;;;;;16.22;60.78;101591.39;1334737;107;21164;-67
2021/12/13 04:47:50;;;;;;;13.68;5.80;;;;;;;16.22;60.69;101599.72;1349862;105;21192;-67
2021/12/13 04:50:28;;;;;;;9.78;5.20;;;;;;;16.19;60.76;101598.52;1365180;104;21160;-67
2021/12/13 04:52:55;;;;;;;7.25;3.72;;;;;;;16.17;60.75;101598.58;1358991;105;21168;-66
2021/12/13 04:55:27;;;;;;;4.97;3.17;;;;;;;16.16;60.84;101603.41;1386384;100;21152;-67
2021/12/13 04:57:56;;;;;;;5.33;3.00;;;;;;;16.15;60.94;101603.46;1424711;101;21137;-72
2021/12/13 05:00:25;;;;;;;5.10;3.40;;;;;;;16.15;60.92;101608.72;1458424;96;21074;-68
2021/12/13 05:02:56;;;;;;;5.40;2.98;;;;;;;16.16;60.94;101611.28;1474080;95;21617;-68
2021/12/13 05:05:22;;;;;;;4.28;3.10;;;;;;;16.16;60.93;101611.28;1481494;95;21130;-67
2021/12/13 05:07:50;;;;;;;3.62;2.72;;;;;;;16.18;60.94;101614.72;1505422;95;21570;-68
2021/12/13 05:10:17;;;;;;;4.05;2.98;;;;;;;16.20;60.93;101628.66;1505165;95;21114;-66
2021/12/13 05:13:09;;;;;;;4.40;3.25;;;;;;;16.21;60.95;101625.14;1501104;95;21093;-67
2021/12/13 05:15:39;;;;;;;4.80;3.47;;;;;;;16.21;60.81;101627.77;1606093;89;21572;-67
2021/12/13 05:18:10;;;;;;;5.28;3.25;;;;;;;16.21;60.83;101635.65;1567634;90;21098;-67
2021/12/13 05:20:39;;;;;;;4.12;3.47;;;;;;;16.19;60.81;101637.47;1624791;87;21058;-67
2021/12/13 05:23:10;;;;;;;4.28;3.42;;;;;;;16.18;60.83;101651.48;1646029;86;21047;-70
2021/12/13 05:25:53;;;;;;;4.47;3.33;;;;;;;16.17;60.89;101652.41;1591625;90;21699;-68
2021/12/13 05:28:25;;;;;;;3.90;3.37;;;;;;;16.17;60.94;101646.29;1575020;90;21032;-68
2021/12/13 05:31:01;;;;;;;;;;;;;;;16.16;60.85;101640.17;1574097;89;21076;-67
2021/12/13 05:33:31;;;;;;;4.28;3.20;;;;;;;16.17;60.87;101648.47;1538178;92;20409;-67
2021/12/13 05:36:02;;;;;;;3.55;2.65;;;;;;;16.17;60.92;101639.28;1548784;91;21120;-67
2021/12/13 05:38:36;;;;;;;4.55;3.40;;;;;;;16.17;60.83;101632.72;1539855;91;21115;-69
2021/12/13 05:41:06;;;;;;;5.03;4.00;;;;;;;16.18;60.81;101629.16;1539827;91;21106;-71
2021/12/13 05:43:43;;;;;;;11.03;6.75;;;;;;;16.18;60.81;101626.54;1546791;91;21146;-67
2021/12/13 05:46:13;;;;;;;11.90;7.70;;;;;;;16.18;60.79;101618.66;1474689;96;21572;-67
2021/12/13 05:48:51;;;;;;;11.08;7.60;;;;;;;16.18;60.78;101613.85;1479651;96;21182;-68
2021/12/13 05:51:28;;;;;;;11.73;8.65;;;;;;;16.18;60.77;101616.03;1477288;96;21151;-67
2021/12/13 05:54:09;;;;;;;10.48;7.62;;;;;;;16.19;60.82;101620.39;1463436;97;21097;-67
2021/12/13 05:56:46;;;;;;;14.20;8.10;;;;;;;16.21;60.77;101622.52;1453809;98;21136;-69
2021/12/13 05:59:21;;;;;;;11.85;7.40;;;;;;;16.21;60.73;101617.27;1447595;97;21078;-67
2021/12/13 06:02:08;;;;;;;10.75;7.15;;;;;;;16.21;60.68;101621.20;1457509;98;21651;-73
2021/12/13 06:04:58;;;;;;;9.98;7.03;;;;;;;16.19;60.62;101620.39;1458544;98;21115;-67
2021/12/13 06:07:28;;;;;;;7.80;5.87;;;;;;;16.18;60.58;101622.60;1421795;99;21115;-71
2021/12/13 06:10:13;;;;;;;7.87;5.53;;;;;;;16.15;60.55;101624.02;1435945;98;21143;-67
2021/12/13 06:12:55;;;;;;;5.15;4.20;;;;;;;16.14;60.67;101628.85;1447138;97;21080;-67
2021/12/13 06:15:36;;;;;;;4.60;4.10;;;;;;;16.12;60.60;101629.80;1381989;103;21158;-67
2021/12/13 06:18:14;;;;;;;4.75;4.25;;;;;;;16.09;60.55;101626.81;1321869;107;21207;-67
2021/12/13 06:20:56;;;;;;;5.00;4.50;;;;;;;16.07;60.66;101632.56;1325483;107;21140;-67
2021/12/13 06:23:31;;;;;;;5.35;4.85;;;;;;;16.06;60.68;101638.73;1321238;105;21164;-66
2021/12/13 06:26:12;;;;;;;4.58;4.17;;;;;;;16.04;60.71;101640.55;1359624;105;21160;-68
2021/12/13 06:28:42;;;;;;;5.22;4.72;;;;;;;16.03;60.80;101644.06;1363630;105;21169;-68
2021/12/13 06:31:16;;;;;;;6.55;4.90;;;;;;;16.00;60.88;101641.55;1396675;102;21133;-73
2021/12/13 06:33:56;;;;;;;5.92;5.12;;;;;;;15.98;60.80;101639.42;1398557;102;21206;-74
2021/12/13 06:36:35;;;;;;;5.10;4.60;;;;;;;15.95;60.83;101639.50;1412335;100;21137;-67
2021/12/13 06:39:11;;;;;;;5.87;5.33;;;;;;;15.92;60.92;101650.55;1411467;100;21116;-67
2021/12/13 06:41:43;;;;;;;5.67;4.80;;;;;;;15.90;61.05;101654.54;1411639;99;21140;-67
2021/12/13 06:44:29;;;;;;;8.38;5.67;;;;;;;15.89;61.17;101667.23;1350105;105;21661;-67
2021/12/13 06:47:10;;;;;;;5.30;4.80;;;;;;;15.88;61.19;101660.28;1342606;105;21637;-68
2021/12/13 06:49:40;;;;;;;6.07;5.47;;;;;;;15.90;61.21;101668.11;1364306;104;21129;-67
2021/12/13 06:52:18;;;;;;;6.63;5.83;;;;;;;15.90;61.17;101666.35;1356485;105;21117;-67
2021/12/13 06:54:59;;;;;;;6.40;5.75;;;;;;;15.90;61.17;101668.97;1395869;101;21191;-70
2021/12/13 06:57:36;;;;;;;8.70;5.75;;;;;;;15.89;61.25;101660.67;1390282;102;21092;-72
2021/12/13 07:00:11;;;;;;;4.62;4.22;;;;;;;15.87;61.11;101661.17;1342958;105;21206;-68
2021/12/13 07:02:50;;;;;;;3.80;3.30;;;;;;;15.85;61.07;101666.92;1345014;106;21142;-67
2021/12/13 07:05:32;;;;;;;3.85;3.45;;;;;;;15.83;61.05;101670.05;1315778;108;21220;-68
2021/12/13 07:08:08;;;;;;;5.78;4.20;;;;;;;15.80;60.97;101659.65;1312877;108;21223;-67
2021/12/13 07:10:46;;;;;;;8.45;7.65;;;;;;;15.78;61.04;101661.46;1311741;108;21617;-68
2021/12/13 07:13:29;;;;;;;7.87;6.85;;;;;;;15.77;60.89;101668.91;1326960;107;21244;-67
2021/12/13 07:16:04;;;;;;;11.57;10.35;;;;;;;15.77;60.76;101666.73;1373932;103;21145;-67
2021/12/13 07:19:00;;;;;;;13.08;12.00;;;;;;;15.74;60.72;101665.08;1363405;104;21169;-68
2021/12/13 07:21:38;;;;;;;8.55;7.75;;;;;;;15.72;60.78;101666.89;1354169;105;21157;-67
2021/12/13 07:24:10;;;;;;;6.37;5.78;;;;;;;15.71;60.66;101673.02;1376166;102;21142;-67
2021/12/13 07:26:57;;;;;;;6.50;5.90;;;;;;;15.70;60.67;101677.87;1369527;104;21126;-72
2021/12/13 07:29:40;;;;;;;5.78;5.17;;;;;;;15.69;60.53;101680.08;1372294;104;21109;-69
2021/12/13 07:32:21;;;;;;;9.40;8.40;;;;;;;15.66;60.44;101677.52;1372439;104;21157;-67
2021/12/13 07:35:10;;;;;;;20.68;18.02;;;;;;;15.63;60.35;101678.94;1370316;103;21255;-67
2021/12/13 07:37:53;;;;;;;15.35;13.68;;;;;;;15.62;60.43;101682.92;1365524;102;21673;-73
2021/12/13 07:40:45;;;;;;;10.35;9.33;;;;;;;15.60;60.18;101679.48;1357871;104;21114;-66
2021/12/13 07:43:19;;;;;;;7.22;6.53;;;;;;;15.52;60.25;101674.42;1383679;100;21135;-67
2021/12/13 07:46:10;;;;;;;6.17;5.58;;;;;;;15.45;60.37;101668.95;1416661;101;21169;-67
2021/12/13 07:48:49;;;;;;;7.42;5.28;;;;;;;15.38;60.58;101663.42;1353243;105;21664;-67
2021/12/13 07:51:25;;;;;;;8.43;7.22;;;;;;;15.30;60.77;101665.39;1356338;105;21149;-67
2021/12/13 07:54:01;;;;;;;13.85;10.18;;;;;;;15.21;60.92;101667.80;1341611;106;21200;-68
2021/12/13 07:56:37;;;;;;;15.00;11.00;;;;;;;15.11;61.08;101666.77;1359389;101;21212;-69
2021/12/13 07:59:34;;;;;;;14.15;9.53;;;;;;;14.99;61.11;101669.70;1405900;102;21643;-69
2021/12/13 08:02:09;;;;;;;12.53;9.30;;;;;;;14.90;61.05;101675.20;1317984;106;21163;-65
2021/12/13 08:04:45;;;;;;;13.08;9.45;;;;;;;14.77;61.35;101669.83;1355218;106;21237;-67
2021/12/13 08:07:19;;;;;;;11.68;9.05;;;;;;;14.68;61.55;101676.16;1368420;104;21128;-66
2021/12/13 08:10:07;;;;;;;11.70;8.78;;;;;;;14.64;61.74;101677.99;1413340;101;21117;-66
2021/12/13 08:12:43;;;;;;;12.03;9.53;;;;;;;14.61;61.58;101674.59;1383721;103;21159;-67
2021/12/13 08:15:29;;;;;;;11.38;9.25;;;;;;;14.61;61.67;101684.59;1381351;103;21178;-65
2021/12/13 08:18:13;;;;;;;14.00;10.45;;;;;;;14.65;61.49;101693.27;1387407;103;21697;-65
2021/12/13 08:20:46;;;;;;;15.18;10.78;;;;;;;14.68;61.34;101696.67;1393160;102;21220;-64
2021/12/13 08:23:20;;;;;;;16.25;10.82;;;;;;;14.66;61.15;101700.22;1388736;103;21643;-64
2021/12/13 08:25:50;;;;;;;15.15;10.65;;;;;;;14.65;61.10;101698.03;1334069;106;21311;-66
2021/12/13 08:28:20;;;;;;;14.78;10.10;;;;;;;14.64;61.02;101707.25;1338222;106;21220;-66
2021/12/13 08:30:55;;;;;;;14.30;10.55;;;;;;;14.61;60.84;101712.58;1347380;106;21338;-66
2021/12/13 08:33:32;;;;;;;14.85;10.00;;;;;;;14.54;60.85;101718.40;1332715;106;21156;-65
2021/12/13 08:36:09;;;;;;;15.90;9.90;;;;;;;14.49;61.05;101722.86;1332534;105;21257;-69
2021/12/13 08:39:15;;;;;;;13.32;9.48;;;;;;;14.47;61.20;101724.66;1347531;105;21699;-68
2021/12/13 08:41:52;;;;;;;12.65;9.03;;;;;;;14.44;61.35;101720.81;1355356;106;21125;-66
2021/12/13 08:44:33;;;;;;;15.58;9.10;;;;;;;14.39;61.31;101722.66;1359737;105;21160;-65
2021/12/13 08:47:11;;;;;;;13.28;9.50;;;;;;;14.35;61.45;101718.38;1358255;106;21211;-67
2021/12/13 08:49:51;;;;;;;13.58;9.70;;;;;;;14.32;61.70;101714.98;1326362;108;21156;-66
2021/12/13 08:52:34;;;;;;;27.00;16.25;;;;;;;14.33;61.63;101720.61;1307054;110;21754;-66
2021/12/13 08:55:15;;;;;;;17.67;12.45;;;;;;;14.33;61.65;101720.17;1282928;110;21680;-66
2021/12/13 08:58:11;;;;;;;15.53;10.65;;;;;;;14.31;61.33;101711.94;1285810;110;21288;-73
2021/12/13 09:00:53;;;;;;;13.50;9.73;;;;;;;14.22;61.39;101707.72;1308991;109;21214;-66
2021/12/13 09:03:26;;;;;;;13.62;9.03;;;;;;;14.10;61.57;101706.67;1281394;110;21227;-66
2021/12/13 09:06:01;;;;;;;16.67;9.40;;;;;;;14.05;61.71;101711.60;1315208;107;21762;-66
2021/12/13 09:08:37;;;;;;;14.60;9.58;;;;;;;14.01;61.66;101719.97;1285694;107;21242;-64
2021/12/13 09:11:31;;;;;;;13.58;9.33;;;;;;;13.99;61.63;101725.69;1257843;113;21221;-65
2021/12/13 09:14:15;;;;;;;13.40;9.78;;;;;;;13.95;61.58;101725.30;1278924;110;21275;-65
2021/12/13 09:17:07;;;;;;;15.23;9.65;;;;;;;13.84;61.64;101727.28;1284753;110;22168;-66
2021/12/13 09:19:50;;;;;;;12.45;9.48;;;;;;;13.80;61.70;101730.86;1304837;109;21154;-66
2021/12/13 09:22:33;;;;;;;15.83;10.32;;;;;;;13.69;61.75;101717.98;1317452;106;21655;-66
2021/12/13 09:25:16;;;;;;;16.12;10.23;;;;;;;13.63;61.97;101714.17;1331132;107;21203;-65
2021/12/13 09:28:03;;;;;;;13.48;9.53;;;;;;;13.59;62.07;101714.26;1328901;107;21195;-66
2021/12/13 09:31:03;;;;;;;10.80;8.53;;;;;;;13.59;62.19;101720.80;1332578;106;21183;-66
2021/12/13 09:33:37;;;;;;;10.68;8.33;;;;;;;13.55;61.85;101720.44;1335602;106;21162;-66
2021/12/13 09:36:17;;;;;;;12.33;8.70;;;;;;;13.46;61.89;101721.90;1316883;108;21217;-71
2021/12/13 09:39:17;;;;;;;12.35;8.78;;;;;;;13.42;62.06;101722.84;1318601;108;21731;-66
2021/12/13 09:42:00;;;;;;;13.13;8.73;;;;;;;13.36;61.97;101727.75;1320209;108;21184;-65
2021/12/13 09:44:51;;;;;;;11.20;8.53;;;;;;;13.29;62.20;101721.36;1306348;110;21718;-66
2021/12/13 09:47:26;;;;;;;11.50;8.75;;;;;;;13.26;62.28;101717.48;1299635;110;21286;-66
2021/12/13 09:50:01;;;;;;;10.78;8.60;;;;;;;13.23;62.34;101717.08;1293659;110;21314;-66
2021/12/13 09:52:38;;;;;;;12.07;8.78;;;;;;;13.22;62.40;101706.23;1298224;108;21243;-66
2021/12/13 09:55:13;;;;;;;14.38;9.60;;;;;;;13.19;62.50;101712.80;1320883;108;21204;-65
2021/12/13 09:57:50;;;;;;;13.55;9.30;;;;;;;13.16;62.56;101710.25;1345399;105;21189;-64
2021/12/13 10:00:31;;;;;;;12.37;8.80;;;;;;;13.17;62.57;101705.90;1383958;101;21139;-70
2021/12/13 10:03:03;;;;;;;10.98;7.65;;;;;;;13.18;62.74;101702.38;1407077;101;21629;-69
2021/12/13 10:05:35;;;;;;;12.07;8.35;;;;;;;13.17;62.72;101685.83;1403344;101;21141;-65
2021/12/13 10:08:07;;;;;;;9.75;7.87;;;;;;;13.16;62.65;101688.48;1403331;97;21704;-66
2021/12/13 10:10:46;;;;;;;10.38;7.42;;;;;;;13.11;62.79;101685.10;1528827;92;21749;-70
2021/12/13 10:13:16;;;;;;;10.32;7.75;;;;;;;13.09;62.97;101690.33;1531444;92;21089;-66
2021/12/13 10:15:49;;;;;;;10.18;7.97;;;;;;;13.12;62.94;101689.42;1493479;96;21096;-66
2021/12/13 10:18:19;;;;;;;8.18;6.75;;;;;;;13.14;62.93;101687.64;1444478;98;21140;-67
2021/12/13 10:20:51;;;;;;;10.30;6.92;;;;;;;13.15;62.94;101682.85;1439606;98;21135;-70
2021/12/13 10:23:22;;;;;;;11.33;7.72;;;;;;;13.13;63.01;101682.02;1393450;102;21171;-66
2021/12/13 10:25:50;;;;;;;12.63;7.28;;;;;;;13.14;63.22;101679.80;1389357;102;21209;-66
2021/12/13 10:28:21;;;;;;;12.58;8.20;;;;;;;13.14;63.10;101677.19;1389353;102;21689;-66
2021/12/13 10:30:52;;;;;;;11.40;7.47;;;;;;;13.12;63.16;101655.45;1394820;102;21290;-65
2021/12/13 10:33:21;;;;;;;11.70;7.42;;;;;;;13.11;63.24;101648.52;1428246;98;21140;-67
2021/12/13 10:35:47;;;;;;;14.58;7.90;;;;;;;13.10;63.33;101644.16;1447575;98;21584;-69
2021/12/13 10:38:24;;;;;;;14.03;7.50;;;;;;;13.08;63.18;101634.19;1455014;97;21598;-66
2021/12/13 10:40:59;;;;;;;14.90;7.55;;;;;;;13.03;63.24;101633.80;1419992;99;21213;-66
2021/12/13 10:43:41;;;;;;;16.57;9.03;;;;;;;12.98;63.48;101629.08;1414505;100;21687;-64
2021/12/13 10:46:12;;;;;;;13.10;8.10;;;;;;;12.92;63.47;101630.97;1402050;101;21161;-66
2021/12/13 10:48:45;;;;;;;11.57;7.65;;;;;;;12.86;63.78;101646.27;1391436;101;21126;-70
2021/12/13 10:51:17;;;;;;;13.38;8.20;;;;;;;12.80;63.96;101655.95;1383676;101;21182;-65
2021/12/13 10:53:45;;;;;;;15.53;10.60;;;;;;;12.75;64.16;101669.12;1359759;105;21227;-66
2021/12/13 10:56:22;;;;;;;10.72;8.43;;;;;;;12.69;64.44;101671.83;1356995;105;21738;-68
2021/12/13 10:58:53;;;;;;;14.40;8.33;;;;;;;12.70;64.66;101676.15;1357896;105;21762;-66
2021/12/13 11:01:27;;;;;;;14.23;8.68;;;;;;;12.72;64.72;101681.34;1363492;105;21121;-67
2021/12/13 11:03:55;;;;;;;14.68;9.45;;;;;;;12.71;64.79;101687.47;1362791;104;21149;-68
2021/12/13 11:06:21;;;;;;;15.23;8.90;;;;;;;12.75;65.07;101691.75;1360924;104;21150;-66
2021/12/13 11:08:48;;;;;;;11.25;8.38;;;;;;;12.81;65.09;101691.66;1346029;106;21102;-69
2021/12/13 11:11:27;;;;;;;13.10;8.53;;;;;;;12.86;64.95;101693.30;1348651;105;21242;-68
2021/12/13 11:13:56;;;;;;;15.60;9.80;;;;;;;12.92;64.97;101693.19;1346943;106;21159;-65
2021/12/13 11:16:40;;;;;;;16.55;10.23;;;;;;;12.96;64.65;101689.64;1361634;105;21180;-66
2021/12/13 11:19:12;;;;;;;15.88;9.90;;;;;;;12.98;64.72;101690.47;1374559;101;21159;-72
2021/12/13 11:21:41;;;;;;;13.68;9.73;;;;;;;13.05;64.65;101689.53;1418404;101;21110;-65
2021/12/13 11:24:11;;;;;;;16.48;8.78;;;;;;;13.12;64.44;101684.20;1403706;102;21080;-66
2021/12/13 11:26:41;;;;;;;15.78;9.40;;;;;;;13.11;64.19;101689.86;1422292;100;21147;-67
2021/12/13 11:29:10;;;;;;;14.55;9.10;;;;;;;13.10;63.80;101689.89;1443808;99;21076;-66
2021/12/13 11:32:18;;;;;;;15.10;9.83;;;;;;;13.03;63.97;101688.66;1439233;98;21135;-66
2021/12/13 11:35:09;;;;;;;12.15;7.72;;;;;;;12.99;63.96;101685.68;1472729;97;21115;-65
2021/12/13 11:38:10;;;;;;;14.05;8.38;;;;;;;13.00;64.16;101688.70;1474746;97;21111;-66
2021/12/13 11:40:59;;;;;;;13.95;8.95;;;;;;;13.03;64.10;101679.52;1458999;96;21153;-66
2021/12/13 11:44:14;;;;;;;10.25;6.90;;;;;;;13.12;63.95;101681.58;1523110;92;21455;-64
2021/12/13 11:47:07;;;;;;;12.98;8.00;;;;;;;13.17;63.85;101683.69;1537040;92;21581;-66
2021/12/13 11:49:52;;;;;;;12.03;7.65;;;;;;;13.24;63.57;101677.44;1542724;87;21164;-66
2021/12/13 11:52:37;;;;;;;13.10;8.43;;;;;;;13.23;63.41;101677.87;1632235;87;21064;-67
2021/12/13 11:55:52;;;;;;;16.10;8.90;;;;;;;13.19;63.45;101675.38;1639178;87;21035;-67
2021/12/13 11:58:33;;;;;;;11.22;7.45;;;;;;;13.19;63.54;101679.30;1657691;85;21588;-65
2021/12/13 12:01:57;;;;;;;12.68;7.45;;;;;;;13.18;63.48;101694.54;1642681;86;21067;-70
2021/12/13 12:05:06;;;;;;;11.80;7.70;;;;;;;13.14;63.30;101703.33;1631238;87;21031;-67
2021/12/13 12:08:11;;;;;;;10.72;7.30;;;;;;;13.11;63.41;101701.62;1648156;86;21480;-65
2021/12/13 12:11:07;;;;;;;10.65;6.87;;;;;;;13.11;63.36;101702.09;1639526;86;21535;-64